Meath Environmental Platform

Observations for Trim Market St

Time AQI Temp °C Hum % Pres Pa CO μg/m³ H₂S μg/m³ NO μg/m³ NO₂ μg/m³ O₃ μg/m³ SO₂ μg/m³ PM1 μg/m³ PM2.5 μg/m³ PM10 μg/m³
Saturday 22 August 2026
06:05 2 10.8 74 50,044 0.41 0 3.71 11.49 39.65 0 1.43 2.85 5.13
06:04 2 10.8 74 50,283 0.4 0 3.97 11.68 43.46 0 2.14 3.34 6.93
06:03 2 10.8 74 50,506 0.41 0 3.61 10.06 42.22 0 2.85 3.82 7.53
06:02 2 10.8 74 50,706 0.4 0 3.68 11.45 44.18 0 1.43 2.86 5.72
06:01 2 10.9 74 50,921 0.4 0 3.17 10.93 44.67 0 1.43 3.35 5.72
06:00 2 10.9 74 51,107 0.39 0 3.8 10.46 41.86 0 1.43 3.35 6.32
05:59 2 10.9 74 51,291 0.41 0 3.67 11.27 46.01 0 2.14 4.32 6.93
05:58 2 10.9 74 51,468 0.39 0 4.15 11.27 46.01 0 2.14 3.84 6.93
05:57 2 10.9 74 51,639 0.4 0 3.99 10.62 42.82 0 2.14 3.84 6.93
05:56 2 10.9 74 51,808 0.38 0 5.43 9.09 46.4 0 2.85 4.33 6.93
05:53 2 11 74 51,978 0.39 0 4.16 9.86 46.94 0 2.85 3.85 6.32
05:52 2 11 73 52,123 0.39 0 4.17 10.61 47.45 0 2.14 4.34 6.92
05:51 2 11 73 52,273 0.38 0 3.93 9.65 43.13 0 2.14 2.89 6.32
05:50 2 11 73 52,422 0.39 0 4.09 10.37 43.33 0 2.14 4.34 8.74
05:49 2 11.1 73 52,560 0.37 0 3.56 9.68 44.31 0 2.14 3.87 6.31
05:46 2 11.2 73 52,936 0.38 0 3.72 10.05 47.18 0 2.85 4.84 7.53
05:45 2 11.2 73 53,082 0.38 0 3.48 10.05 49.13 0 2.85 4.36 6.92
05:44 2 11.2 73 53,218 0.37 0 3.95 9.33 45.38 0 1.43 3.88 6.31
05:43 2 11.3 73 53,340 0.37 0 3.73 9.21 49.42 0 2.14 3.89 6.31
05:41 2 11.3 73 53,600 0.37 0 3.59 9.99 46.87 0 1.43 3.41 5.7